Time;durP1;ratioP1;P1;durP2;ratioP2;P2;SDS_P1;SDS_P2;PMS_P1;PMS_P2;Temp;Humidity;BMP_temperature;BMP_pressure;BME280_temperature;BME280_humidity;BME280_pressure;Samples;Min_cycle;Max_cycle;Signal;HPM_P1;HPM_P2
2021/10/26 00:00:05;;;;;;;0.40;0.27;;;;;;;4.73;96.06;101289.16;5016357;28;20448;-71
2021/10/26 00:02:31;;;;;;;0.83;0.83;;;;;;;4.64;95.23;101283.38;5016268;28;20452;-71
2021/10/26 00:04:58;;;;;;;0.40;0.30;;;;;;;4.60;95.19;101284.94;5015889;28;20965;-71
2021/10/26 00:07:24;;;;;;;0.40;0.30;;;;;;;4.61;94.22;101281.22;5016171;28;20486;-71
2021/10/26 00:09:51;;;;;;;0.40;0.30;;;;;;;4.63;93.88;101284.44;5016116;28;20448;-71
2021/10/26 00:12:17;;;;;;;0.40;0.30;;;;;;;4.64;93.88;101278.03;5016139;28;20448;-70
2021/10/26 00:14:45;;;;;;;0.40;0.30;;;;;;;4.57;94.78;101284.63;5015725;28;20479;-70
2021/10/26 00:17:11;;;;;;;0.40;0.30;;;;;;;4.58;95.02;101281.69;5016000;28;20468;-71
2021/10/26 00:19:38;;;;;;;0.50;0.50;;;;;;;4.73;95.37;101283.78;5015975;28;20447;-71
2021/10/26 00:22:04;;;;;;;2.00;1.80;;;;;;;4.79;95.18;101272.91;5015997;28;20444;-71
2021/10/26 00:24:31;;;;;;;0.40;0.30;;;;;;;4.83;95.91;101267.06;5015959;28;20443;-71
2021/10/26 00:26:57;;;;;;;0.40;0.30;;;;;;;4.89;95.90;101263.38;5015807;28;20467;-71
2021/10/26 00:29:24;;;;;;;0.40;0.20;;;;;;;4.94;96.46;101269.63;5015795;28;20501;-71
2021/10/26 00:31:52;;;;;;;0.40;0.30;;;;;;;4.99;96.86;101266.19;5015810;28;20446;-71
2021/10/26 00:34:19;;;;;;;0.40;0.27;;;;;;;5.12;97.00;101263.16;5015670;28;20497;-71
2021/10/26 00:36:45;;;;;;;0.40;0.30;;;;;;;5.31;96.93;101258.31;5015607;28;20483;-71
2021/10/26 00:39:12;;;;;;;0.80;0.80;;;;;;;5.45;97.10;101264.16;5015633;28;20444;-71
2021/10/26 00:41:39;;;;;;;0.40;0.30;;;;;;;5.53;97.78;101258.31;5015602;28;20447;-70
2021/10/26 00:44:05;;;;;;;0.40;0.30;;;;;;;5.63;97.73;101258.44;5015522;28;20451;-71
2021/10/26 00:46:34;;;;;;;0.50;0.50;;;;;;;5.66;98.72;101257.13;5015036;28;20490;-71
2021/10/26 00:49:09;;;;;;;26.70;12.13;;;;;;;5.77;98.63;101256.19;5015388;28;20444;-71
2021/10/26 00:51:35;;;;;;;4.77;4.47;;;;;;;5.88;98.76;101262.47;5015135;28;20929;-71
2021/10/26 00:54:04;;;;;;;0.50;0.30;;;;;;;5.89;99.35;101251.47;5014897;28;20488;-71
2021/10/26 00:56:32;;;;;;;0.70;0.70;;;;;;;6.02;98.96;101256.50;5014995;28;20467;-71
2021/10/26 00:58:59;;;;;;;16.10;14.50;;;;;;;6.10;98.69;101249.81;5015238;28;20502;-71
2021/10/26 01:01:25;;;;;;;18.33;16.43;;;;;;;6.09;99.49;101250.88;5014961;28;20942;-70
2021/10/26 01:03:52;;;;;;;0.40;0.33;;;;;;;6.10;99.83;101260.56;5015077;28;20513;-71
2021/10/26 01:06:20;;;;;;;0.40;0.30;;;;;;;6.21;99.45;101259.63;5014729;28;20996;-71
2021/10/26 01:08:49;;;;;;;2.00;1.90;;;;;;;6.27;99.10;101265.84;5015027;28;20479;-71
2021/10/26 01:11:16;;;;;;;0.40;0.30;;;;;;;6.29;98.96;101259.16;5014828;28;20455;-71
2021/10/26 01:13:42;;;;;;;0.50;0.30;;;;;;;6.34;98.06;101262.97;5014870;28;20479;-70
2021/10/26 01:16:09;;;;;;;0.40;0.30;;;;;;;6.29;97.54;101261.84;5014879;28;20486;-70
2021/10/26 01:18:35;;;;;;;0.40;0.30;;;;;;;6.28;97.04;101270.97;5014905;28;20471;-69
2021/10/26 01:21:03;;;;;;;0.40;0.30;;;;;;;6.24;97.45;101272.56;5014867;28;20454;-70
2021/10/26 01:23:30;;;;;;;0.40;0.20;;;;;;;6.29;96.92;101269.91;5014791;28;20451;-70
2021/10/26 01:25:57;;;;;;;0.40;0.30;;;;;;;6.18;97.28;101268.19;5014626;28;20510;-70
2021/10/26 01:28:23;;;;;;;0.40;0.30;;;;;;;6.24;96.82;101266.34;5014702;28;20455;-70
2021/10/26 01:30:50;;;;;;;0.40;0.33;;;;;;;6.18;97.53;101265.50;5014612;28;20435;-70
2021/10/26 01:33:17;;;;;;;1.60;1.50;;;;;;;6.20;97.38;101262.56;5014616;28;20485;-70
2021/10/26 01:35:43;;;;;;;0.40;0.30;;;;;;;6.15;98.29;101275.94;5014354;28;20486;-70
2021/10/26 01:38:11;;;;;;;0.40;0.30;;;;;;;6.25;98.16;101279.56;5014545;28;20455;-70
2021/10/26 01:40:38;;;;;;;0.40;0.30;;;;;;;6.35;98.64;101283.41;5014457;28;20448;-70
2021/10/26 01:43:05;;;;;;;1.20;1.07;;;;;;;6.41;99.04;101279.69;5014442;28;20447;-70
2021/10/26 01:45:31;;;;;;;0.40;0.20;;;;;;;6.43;98.96;101286.44;5014384;28;20443;-70
2021/10/26 01:47:58;;;;;;;0.40;0.30;;;;;;;6.45;98.88;101280.81;5014263;28;20463;-70
2021/10/26 01:50:25;;;;;;;2.00;1.87;;;;;;;6.41;99.12;101271.63;5014020;28;20447;-70
2021/10/26 01:52:51;;;;;;;0.40;0.30;;;;;;;6.38;99.17;101280.22;5014212;28;20447;-70
2021/10/26 01:55:20;;;;;;;0.40;0.40;;;;;;;6.27;99.18;101276.59;5014099;28;20476;-70
2021/10/26 01:57:47;;;;;;;0.40;0.30;;;;;;;6.24;99.16;101275.25;5013809;28;21040;-70
2021/10/26 02:00:17;;;;;;;0.40;0.30;;;;;;;6.24;99.04;101269.88;5014150;28;20444;-70
2021/10/26 02:02:45;;;;;;;0.40;0.30;;;;;;;6.21;99.21;101266.88;5014072;28;20428;-70
2021/10/26 02:05:11;;;;;;;0.40;0.20;;;;;;;6.18;99.21;101268.19;5013611;28;20558;-70
2021/10/26 02:07:38;;;;;;;3.13;2.10;;;;;;;6.03;98.84;101270.75;5013939;28;20472;-70
2021/10/26 02:10:05;;;;;;;0.40;0.30;;;;;;;5.91;98.21;101267.34;5013962;28;20444;-70
2021/10/26 02:12:33;;;;;;;0.40;0.30;;;;;;;5.91;98.64;101272.72;5013974;28;20459;-71
2021/10/26 02:14:59;;;;;;;0.40;0.30;;;;;;;5.96;97.89;101275.50;5013806;28;20513;-71
2021/10/26 02:17:26;;;;;;;0.40;0.27;;;;;;;5.88;96.60;101265.16;5013845;28;20474;-71
2021/10/26 02:19:52;;;;;;;0.40;0.30;;;;;;;5.79;95.55;101265.59;5013761;28;20443;-71
2021/10/26 02:22:19;;;;;;;0.40;0.23;;;;;;;5.70;96.17;101266.31;5013794;28;20834;-70
2021/10/26 02:24:46;;;;;;;0.40;0.30;;;;;;;5.63;95.92;101266.50;5013732;28;20433;-68
2021/10/26 02:27:13;;;;;;;0.40;0.30;;;;;;;5.65;95.97;101263.56;5013747;28;20463;-68
2021/10/26 02:29:40;;;;;;;0.40;0.30;;;;;;;5.57;96.44;101268.31;5013692;28;20456;-68
2021/10/26 02:32:08;;;;;;;0.40;0.30;;;;;;;5.57;96.75;101267.50;5013645;28;20444;-68
2021/10/26 02:34:34;;;;;;;0.40;0.30;;;;;;;5.65;96.36;101260.88;5013485;28;20484;-71
2021/10/26 02:37:01;;;;;;;0.40;0.30;;;;;;;5.69;96.97;101265.50;5013556;28;20460;-70
2021/10/26 02:39:28;;;;;;;0.40;0.30;;;;;;;5.66;98.25;101274.06;5013569;28;20467;-70
2021/10/26 02:41:54;;;;;;;0.40;0.20;;;;;;;5.67;98.38;101280.25;5013487;28;20443;-70
2021/10/26 02:44:21;;;;;;;0.40;0.30;;;;;;;5.70;98.40;101269.81;5013255;28;20980;-70
2021/10/26 02:46:49;;;;;;;4.20;3.93;;;;;;;5.67;98.28;101270.31;5013388;28;20464;-71
2021/10/26 02:49:15;;;;;;;0.97;0.97;;;;;;;5.67;98.21;101270.31;5013445;28;20505;-71
2021/10/26 02:51:42;;;;;;;0.40;0.30;;;;;;;5.66;98.78;101259.81;5013428;28;20462;-71
2021/10/26 02:54:09;;;;;;;0.40;0.30;;;;;;;5.66;98.72;101260.63;5013446;28;20443;-71
2021/10/26 02:56:36;;;;;;;0.40;0.30;;;;;;;5.65;98.79;101259.00;5014503;28;20503;-71
2021/10/26 02:59:03;;;;;;;0.40;0.30;;;;;;;5.70;99.06;101255.56;5013343;28;20444;-71
2021/10/26 03:01:29;;;;;;;0.40;0.30;;;;;;;5.70;98.95;101267.13;5013311;28;20440;-71
2021/10/26 03:03:57;;;;;;;0.40;0.30;;;;;;;5.71;99.46;101262.53;5012978;28;20889;-71
2021/10/26 03:06:24;;;;;;;0.40;0.30;;;;;;;5.73;99.61;101249.69;5013263;28;20456;-71
2021/10/26 03:08:51;;;;;;;0.40;0.30;;;;;;;5.72;99.47;101254.25;5012998;28;21032;-71
2021/10/26 03:11:17;;;;;;;0.73;0.73;;;;;;;5.76;99.25;101260.75;5012961;28;20956;-71
2021/10/26 03:13:44;;;;;;;0.40;0.30;;;;;;;5.70;97.82;101258.25;5013120;28;20502;-71
2021/10/26 03:16:10;;;;;;;0.40;0.20;;;;;;;5.71;97.96;101251.78;5013086;28;20508;-71
2021/10/26 03:18:37;;;;;;;0.50;0.40;;;;;;;5.75;97.52;101259.09;5014975;28;20855;-71
2021/10/26 03:21:05;;;;;;;0.40;0.30;;;;;;;5.83;97.08;101250.59;5017069;28;20494;-71
2021/10/26 03:23:31;;;;;;;0.40;0.30;;;;;;;5.76;97.36;101249.19;5017080;28;20440;-71
2021/10/26 03:25:58;;;;;;;0.40;0.30;;;;;;;5.82;96.88;101242.78;5017039;28;20456;-71
2021/10/26 03:28:25;;;;;;;0.40;0.30;;;;;;;5.79;97.13;101248.66;5017039;28;20521;-71
2021/10/26 03:30:51;;;;;;;0.40;0.30;;;;;;;5.83;96.79;101245.22;5016488;28;20467;-71
2021/10/26 03:33:18;;;;;;;0.40;0.30;;;;;;;5.94;96.39;101250.75;5016841;28;20439;-71
2021/10/26 03:35:44;;;;;;;0.60;0.60;;;;;;;5.97;96.31;101252.91;5016662;28;20491;-71
2021/10/26 03:38:12;;;;;;;0.50;0.47;;;;;;;5.95;97.25;101258.56;5016766;28;20435;-71
2021/10/26 03:40:38;;;;;;;0.40;0.20;;;;;;;6.06;97.69;101260.28;5016780;28;20451;-71
2021/10/26 03:43:06;;;;;;;0.40;0.30;;;;;;;6.16;98.50;101270.34;5016663;28;20444;-71
2021/10/26 03:45:32;;;;;;;0.40;0.27;;;;;;;6.17;99.51;101266.56;5016576;28;20491;-71
2021/10/26 03:47:59;;;;;;;0.40;0.20;;;;;;;6.25;99.94;101263.41;5016581;28;20455;-71
2021/10/26 03:50:25;;;;;;;0.40;0.20;;;;;;;6.34;99.79;101260.28;5016573;28;20443;-72
2021/10/26 03:52:52;;;;;;;0.40;0.20;;;;;;;6.36;100.00;101260.81;5016484;28;20452;-70
2021/10/26 03:55:20;;;;;;;0.40;0.20;;;;;;;6.38;100.00;101264.06;5016389;28;20488;-71
2021/10/26 03:57:47;;;;;;;0.40;0.30;;;;;;;6.46;100.00;101266.28;5016038;28;20980;-72
2021/10/26 04:00:14;;;;;;;0.40;0.20;;;;;;;6.50;100.00;101270.06;5016412;28;20451;-72
2021/10/26 04:02:42;;;;;;;0.40;0.30;;;;;;;6.47;100.00;101265.22;5016385;28;20444;-72
2021/10/26 04:05:17;;;;;;;0.40;0.30;;;;;;;6.53;100.00;101264.19;5015762;28;20850;-72
2021/10/26 04:07:51;;;;;;;0.40;0.30;;;;;;;6.59;100.00;101257.75;5016134;28;20821;-71
2021/10/26 04:10:19;;;;;;;0.40;0.30;;;;;;;6.62;100.00;101262.66;5016278;28;20443;-69
2021/10/26 04:12:47;;;;;;;0.40;0.20;;;;;;;6.63;100.00;101268.84;5016176;28;20792;-70
2021/10/26 04:15:14;;;;;;;0.40;0.20;;;;;;;6.63;100.00;101266.16;5015729;28;21024;-70
2021/10/26 04:17:40;;;;;;;0.40;0.30;;;;;;;6.68;99.72;101276.94;5015969;28;20468;-71
2021/10/26 04:20:07;;;;;;;0.40;0.20;;;;;;;6.65;99.08;101267.53;5016063;28;20798;-70
2021/10/26 04:22:34;;;;;;;2.40;2.30;;;;;;;6.71;99.17;101273.75;5015920;28;20448;-70
2021/10/26 04:25:00;;;;;;;0.40;0.30;;;;;;;6.74;98.83;101274.03;5015911;28;20448;-71
2021/10/26 04:27:27;;;;;;;0.40;0.30;;;;;;;6.78;98.70;101272.47;5015879;28;20571;-71
2021/10/26 04:29:54;;;;;;;0.40;0.30;;;;;;;6.81;98.17;101271.94;5014671;28;20463;-71
2021/10/26 04:32:21;;;;;;;0.40;0.20;;;;;;;6.79;98.11;101276.78;5015811;28;20444;-71
2021/10/26 04:34:48;;;;;;;0.40;0.20;;;;;;;6.82;98.15;101270.88;5015614;28;20451;-70
2021/10/26 04:37:15;;;;;;;0.40;0.27;;;;;;;6.88;98.17;101269.03;5015653;28;20567;-71
2021/10/26 04:39:41;;;;;;;0.40;0.30;;;;;;;6.91;98.65;101271.22;5015638;28;20444;-71
2021/10/26 04:42:09;;;;;;;0.50;0.40;;;;;;;7.00;99.78;101275.03;5015589;28;20444;-70
2021/10/26 04:44:36;;;;;;;0.50;0.40;;;;;;;7.10;99.82;101285.06;5015231;28;20454;-70
2021/10/26 04:47:05;;;;;;;0.40;0.20;;;;;;;7.15;100.00;101277.00;5015213;28;20487;-71
2021/10/26 04:49:31;;;;;;;0.40;0.30;;;;;;;7.19;100.00;101283.50;5015215;28;20444;-71
2021/10/26 04:51:58;;;;;;;0.40;0.20;;;;;;;7.21;100.00;101273.25;5015122;28;20439;-71
2021/10/26 04:54:24;;;;;;;0.40;0.30;;;;;;;7.33;100.00;101278.44;5015062;28;20817;-71
2021/10/26 04:56:51;;;;;;;20.10;11.00;;;;;;;7.40;100.00;101280.91;5014851;28;20487;-71
2021/10/26 04:59:18;;;;;;;0.40;0.30;;;;;;;7.43;100.00;101277.66;5015293;28;20443;-71
2021/10/26 05:01:44;;;;;;;0.40;0.30;;;;;;;7.51;100.00;101277.16;5015210;28;20498;-71
2021/10/26 05:04:12;;;;;;;0.67;0.30;;;;;;;7.58;100.00;101283.16;5015040;28;20818;-71
2021/10/26 05:06:38;;;;;;;0.40;0.30;;;;;;;7.64;100.00;101290.16;5015082;28;20472;-71
2021/10/26 05:09:05;;;;;;;0.40;0.30;;;;;;;7.67;100.00;101291.53;5015063;28;20524;-70
2021/10/26 05:11:31;;;;;;;0.40;0.30;;;;;;;7.70;100.00;101291.81;5015044;28;20448;-70
2021/10/26 05:13:57;;;;;;;0.40;0.30;;;;;;;7.71;100.00;101287.25;5014902;28;20467;-70
2021/10/26 05:16:26;;;;;;;0.40;0.30;;;;;;;7.70;100.00;101283.72;5014715;28;20484;-71
2021/10/26 05:18:56;;;;;;;0.40;0.27;;;;;;;7.71;100.00;101295.34;5014911;28;20440;-71
2021/10/26 05:21:24;;;;;;;0.40;0.30;;;;;;;7.72;99.41;101289.66;5014572;28;20982;-71
2021/10/26 05:23:51;;;;;;;0.40;0.30;;;;;;;7.70;98.72;101289.13;5014787;28;20446;-71
2021/10/26 05:26:19;;;;;;;0.40;0.27;;;;;;;7.71;98.80;101287.25;5014685;28;20463;-71
2021/10/26 05:28:47;;;;;;;0.40;0.20;;;;;;;7.75;98.40;101294.53;5014663;28;20618;-71
2021/10/26 05:31:13;;;;;;;0.40;0.30;;;;;;;7.81;99.11;101301.56;5014673;28;20491;-70
2021/10/26 05:33:40;;;;;;;0.83;0.83;;;;;;;7.85;99.73;101291.06;5014564;28;20454;-71
2021/10/26 05:36:07;;;;;;;0.83;0.83;;;;;;;7.85;99.71;101293.75;5014445;28;20871;-70
2021/10/26 05:38:35;;;;;;;0.40;0.30;;;;;;;7.93;100.00;101300.53;5014455;28;20443;-70
2021/10/26 05:41:02;;;;;;;0.97;0.93;;;;;;;7.98;100.00;101301.34;5014160;28;20443;-70
2021/10/26 05:43:28;;;;;;;0.40;0.30;;;;;;;8.08;100.00;101300.56;5014328;28;20467;-70
2021/10/26 05:45:55;;;;;;;0.40;0.30;;;;;;;8.15;100.00;101295.72;5013990;28;20989;-70
2021/10/26 05:48:22;;;;;;;0.40;0.20;;;;;;;8.20;100.00;101293.03;5014389;28;20448;-71
2021/10/26 05:50:49;;;;;;;0.40;0.30;;;;;;;8.27;100.00;101295.44;5014362;28;20451;-71
2021/10/26 05:53:15;;;;;;;0.40;0.30;;;;;;;8.39;100.00;101296.03;5014364;28;20444;-70
2021/10/26 05:55:43;;;;;;;4.00;3.63;;;;;;;8.39;100.00;101296.03;5014157;28;20483;-71
2021/10/26 05:58:12;;;;;;;0.40;0.30;;;;;;;8.44;100.00;101303.34;5014228;28;20471;-71
2021/10/26 06:00:39;;;;;;;0.40;0.30;;;;;;;8.50;100.00;101307.66;5013725;28;20937;-70
2021/10/26 06:03:05;;;;;;;0.50;0.50;;;;;;;8.57;100.00;101313.59;5014089;28;20447;-70
2021/10/26 06:05:32;;;;;;;0.40;0.20;;;;;;;8.66;100.00;101324.69;5013676;28;20471;-69
2021/10/26 06:07:58;;;;;;;0.40;0.30;;;;;;;8.72;100.00;101327.13;5013910;28;20444;-69
2021/10/26 06:10:25;;;;;;;0.40;0.30;;;;;;;8.75;100.00;101331.16;5014015;28;20440;-69
2021/10/26 06:12:56;;;;;;;0.40;0.30;;;;;;;8.72;100.00;101324.44;5013933;28;20448;-69
2021/10/26 06:15:23;;;;;;;0.40;0.30;;;;;;;8.77;100.00;101332.53;5013601;28;20478;-70
2021/10/26 06:17:49;;;;;;;0.40;0.30;;;;;;;8.76;98.94;101321.97;5013796;28;20817;-68
2021/10/26 06:20:16;;;;;;;0.40;0.30;;;;;;;8.79;98.12;101329.53;5013934;28;20467;-68
2021/10/26 06:22:43;;;;;;;0.40;0.30;;;;;;;8.81;97.27;101325.50;5013536;28;20941;-67
2021/10/26 06:25:10;;;;;;;0.40;0.30;;;;;;;8.83;96.82;101330.63;5013633;28;20459;-69
2021/10/26 06:27:36;;;;;;;0.40;0.30;;;;;;;8.86;96.61;101337.38;5013683;28;20547;-69
2021/10/26 06:30:05;;;;;;;0.40;0.30;;;;;;;8.92;96.53;101339.00;5013499;28;20480;-69
2021/10/26 06:32:32;;;;;;;1.27;1.13;;;;;;;9.00;96.72;101339.25;5013642;28;20451;-70
2021/10/26 06:34:58;;;;;;;0.40;0.30;;;;;;;9.08;97.19;101337.91;5013645;28;20444;-70
2021/10/26 06:37:26;;;;;;;0.40;0.30;;;;;;;9.17;98.17;101341.69;5013487;28;20506;-70
2021/10/26 06:39:55;;;;;;;0.40;0.30;;;;;;;9.21;98.60;101352.72;5013210;28;20830;-70
2021/10/26 06:42:22;;;;;;;0.40;0.30;;;;;;;9.29;98.58;101352.19;5013396;28;20955;-70
2021/10/26 06:44:49;;;;;;;2.20;2.00;;;;;;;9.35;98.67;101357.31;5013149;28;20947;-70
2021/10/26 06:47:18;;;;;;;0.40;0.30;;;;;;;9.40;98.44;101361.09;5013137;28;20977;-70
2021/10/26 06:49:45;;;;;;;0.40;0.30;;;;;;;9.44;98.39;101365.69;5013511;28;20448;-70
2021/10/26 06:52:12;;;;;;;0.40;0.30;;;;;;;9.46;98.35;101366.22;5012902;28;20447;-70
2021/10/26 06:54:38;;;;;;;0.40;0.30;;;;;;;9.49;98.46;101371.06;5013283;28;20539;-70
2021/10/26 06:57:05;;;;;;;0.40;0.30;;;;;;;9.58;98.56;101372.13;5013331;28;20487;-70
2021/10/26 06:59:31;;;;;;;0.40;0.30;;;;;;;9.63;98.59;101378.63;5013429;28;20452;-70
2021/10/26 07:01:58;;;;;;;0.40;0.30;;;;;;;9.68;99.06;101382.13;5013469;28;20448;-68
2021/10/26 07:04:26;;;;;;;0.40;0.30;;;;;;;9.76;99.07;101383.44;5012899;28;20459;-68
2021/10/26 07:06:52;;;;;;;0.40;0.30;;;;;;;9.84;98.99;101380.97;5012944;28;20456;-69
2021/10/26 07:09:19;;;;;;;0.40;0.30;;;;;;;9.94;98.51;101376.63;5012988;28;20955;-69
2021/10/26 07:11:45;;;;;;;0.40;0.30;;;;;;;10.01;98.36;101377.94;5013310;28;20470;-68
2021/10/26 07:14:12;;;;;;;0.40;0.30;;;;;;;10.08;97.90;101377.63;5013304;28;20476;-69
2021/10/26 07:16:38;;;;;;;0.40;0.30;;;;;;;10.15;97.57;101377.34;5012752;28;20495;-69
2021/10/26 07:19:05;;;;;;;0.63;0.63;;;;;;;10.18;96.68;101379.47;5012910;28;20437;-68
2021/10/26 07:21:33;;;;;;;0.40;0.30;;;;;;;10.21;96.78;101368.91;5013247;28;20448;-69
2021/10/26 07:24:00;;;;;;;1.27;1.17;;;;;;;10.30;96.44;101382.69;5012894;28;20814;-69
2021/10/26 07:26:26;;;;;;;0.40;0.30;;;;;;;10.37;96.67;101377.00;5013141;28;20459;-68
2021/10/26 07:28:54;;;;;;;0.40;0.30;;;;;;;10.42;95.86;101379.66;5013139;28;20451;-69
2021/10/26 07:31:24;;;;;;;0.40;0.30;;;;;;;10.47;95.97;101377.72;5013142;28;20538;-69
2021/10/26 07:33:50;;;;;;;0.40;0.30;;;;;;;10.53;96.12;101384.72;5013023;28;20879;-69
2021/10/26 07:36:18;;;;;;;0.40;0.30;;;;;;;10.58;96.09;101392.84;5012628;28;20586;-69
2021/10/26 07:38:46;;;;;;;0.40;0.30;;;;;;;10.64;96.28;101395.50;5013129;28;20532;-69
2021/10/26 07:41:13;;;;;;;0.40;0.30;;;;;;;10.71;96.26;101399.50;5013054;28;20534;-69
2021/10/26 07:43:40;;;;;;;0.40;0.30;;;;;;;10.79;96.04;101396.19;5013034;28;20884;-69
2021/10/26 07:46:07;;;;;;;0.40;0.30;;;;;;;10.84;95.92;101392.63;5012913;28;20490;-69
2021/10/26 07:48:37;;;;;;;0.40;0.30;;;;;;;10.90;96.02;101402.34;5012672;28;20444;-70
2021/10/26 07:51:03;;;;;;;0.40;0.30;;;;;;;10.94;95.62;101410.75;5013021;28;20475;-69
2021/10/26 07:53:31;;;;;;;0.40;0.30;;;;;;;10.95;95.56;101415.06;5012874;28;20471;-69
2021/10/26 07:56:01;;;;;;;0.40;0.30;;;;;;;10.98;95.72;101419.91;5012616;28;20904;-70
2021/10/26 07:58:28;;;;;;;0.40;0.30;;;;;;;11.00;95.53;101401.47;5012731;28;20432;-70
2021/10/26 08:00:55;;;;;;;0.40;0.30;;;;;;;11.06;95.28;101411.16;5012400;28;20825;-69
2021/10/26 08:03:22;;;;;;;0.40;0.30;;;;;;;11.10;94.88;101410.31;5012658;28;20455;-70
2021/10/26 08:05:50;;;;;;;0.40;0.30;;;;;;;11.18;94.89;101408.91;5015765;28;20460;-69
2021/10/26 08:08:17;;;;;;;0.40;0.30;;;;;;;11.23;94.96;101411.56;5016165;28;20439;-70
2021/10/26 08:10:45;;;;;;;0.40;0.30;;;;;;;11.30;94.58;101416.66;5015838;28;20448;-71
2021/10/26 08:13:13;;;;;;;0.40;0.30;;;;;;;11.33;94.51;101406.06;5015884;28;20482;-71
2021/10/26 08:15:40;;;;;;;0.40;0.30;;;;;;;11.35;94.46;101406.56;4996444;28;20453;-71
2021/10/26 08:18:07;;;;;;;0.40;0.30;;;;;;;11.43;94.02;101398.91;5012811;28;20488;-70
2021/10/26 08:20:33;;;;;;;0.40;0.30;;;;;;;11.47;94.06;101400.78;5015802;28;20451;-70
2021/10/26 08:23:00;;;;;;;0.40;0.30;;;;;;;11.52;93.91;101402.63;5015737;28;20447;-70
2021/10/26 08:25:29;;;;;;;0.40;0.30;;;;;;;11.56;93.73;101406.38;5015918;28;20440;-71
2021/10/26 08:27:56;;;;;;;0.40;0.30;;;;;;;11.64;93.74;101413.88;5015874;28;20464;-69
2021/10/26 08:30:34;;;;;;;0.40;0.30;;;;;;;11.69;93.65;101403.00;5015462;28;20467;-71
2021/10/26 08:33:11;;;;;;;0.43;0.40;;;;;;;11.65;92.18;101404.66;5015815;28;20428;-70
2021/10/26 08:35:38;;;;;;;0.40;0.27;;;;;;;11.76;91.98;101398.00;5015661;28;20432;-70
2021/10/26 08:38:06;;;;;;;0.40;0.30;;;;;;;11.86;92.43;101403.38;5015466;28;20486;-71
2021/10/26 08:40:36;;;;;;;0.40;0.30;;;;;;;11.86;92.55;101397.94;5015577;28;20435;-72
2021/10/26 08:43:06;;;;;;;1.10;1.07;;;;;;;11.91;92.59;101398.94;5015488;28;20451;-70
2021/10/26 08:45:35;;;;;;;0.40;0.30;;;;;;;11.93;93.37;101405.72;5015189;28;20464;-72
2021/10/26 08:48:05;;;;;;;0.40;0.30;;;;;;;11.99;93.11;101407.25;5015406;28;20444;-71
2021/10/26 08:50:34;;;;;;;0.40;0.30;;;;;;;12.08;92.94;101404.72;5015436;28;20444;-72
2021/10/26 08:53:01;;;;;;;0.40;0.30;;;;;;;12.12;92.61;101406.56;5015407;28;20448;-71
2021/10/26 08:55:28;;;;;;;0.40;0.30;;;;;;;12.19;92.99;101406.22;5015391;28;20487;-72
2021/10/26 08:57:57;;;;;;;0.40;0.20;;;;;;;12.28;92.73;101406.38;5015054;28;20488;-71
2021/10/26 09:00:24;;;;;;;0.40;0.30;;;;;;;12.36;92.24;101394.84;5015000;28;20591;-71
2021/10/26 09:02:53;;;;;;;0.93;0.93;;;;;;;12.45;92.15;101397.72;5016622;28;20488;-70
2021/10/26 09:05:22;;;;;;;0.40;0.27;;;;;;;12.55;91.79;101403.00;5014869;28;20475;-71
2021/10/26 09:08:01;;;;;;;0.40;0.30;;;;;;;12.70;91.30;101407.41;5015026;28;20803;-71
2021/10/26 09:10:30;;;;;;;8.13;5.00;;;;;;;12.72;90.94;101406.03;5015185;28;20504;-71
2021/10/26 09:18:35;;;;;;;0.40;0.20;;;;;;;12.97;89.90;101417.59;5014666;28;20839;-70
2021/10/26 09:21:01;;;;;;;0.40;0.30;;;;;;;13.00;89.76;101414.28;5014894;28;20814;-71
2021/10/26 09:23:28;;;;;;;0.40;0.30;;;;;;;13.02;89.96;101417.53;5014563;28;20942;-70
2021/10/26 09:26:00;;;;;;;0.40;0.30;;;;;;;13.05;89.65;101425.06;5014701;28;20490;-69
2021/10/26 09:28:27;;;;;;;0.80;0.80;;;;;;;13.08;89.62;101429.94;5014774;28;20429;-71
2021/10/26 09:31:01;;;;;;;0.40;0.20;;;;;;;13.11;89.67;101429.34;5014732;28;20436;-71
2021/10/26 09:33:31;;;;;;;0.40;0.30;;;;;;;13.15;89.28;101427.66;5014036;28;20502;-71
2021/10/26 09:36:27;;;;;;;0.40;0.30;;;;;;;13.24;89.26;101415.00;5014016;28;20555;-71
2021/10/26 09:39:10;;;;;;;0.40;0.30;;;;;;;13.42;88.90;101426.13;5014270;28;20429;-71
2021/10/26 09:41:38;;;;;;;0.40;0.30;;;;;;;13.52;88.50;101431.41;5014493;28;20456;-74
2021/10/26 09:44:11;;;;;;;0.40;0.20;;;;;;;13.62;86.81;101432.00;5014452;28;20539;-71
2021/10/26 09:46:40;;;;;;;0.40;0.30;;;;;;;13.72;86.84;101431.00;5014420;28;20844;-73
2021/10/26 09:49:20;;;;;;;0.40;0.20;;;;;;;13.77;86.50;101428.22;5014401;28;20447;-73
2021/10/26 09:51:49;;;;;;;0.40;0.30;;;;;;;13.85;86.45;101430.19;5014140;28;20417;-73
2021/10/26 09:54:17;;;;;;;0.40;0.27;;;;;;;14.03;86.16;101428.50;5014299;28;20455;-71
2021/10/26 09:57:05;;;;;;;0.40;0.20;;;;;;;14.22;85.06;101427.59;5013723;28;20471;-71
2021/10/26 09:59:32;;;;;;;0.40;0.30;;;;;;;14.24;84.66;101428.88;5013983;28;20478;-70
2021/10/26 10:01:59;;;;;;;0.40;0.30;;;;;;;14.28;84.07;101431.81;5013817;28;20471;-69
2021/10/26 10:04:27;;;;;;;0.40;0.30;;;;;;;14.34;84.15;101431.41;5013589;28;20809;-71
2021/10/26 10:06:55;;;;;;;0.40;0.30;;;;;;;14.41;84.05;101430.97;5013951;28;20468;-68
2021/10/26 10:09:22;;;;;;;0.40;0.30;;;;;;;14.45;83.17;101431.19;5013965;28;20451;-71
2021/10/26 10:12:04;;;;;;;0.40;0.30;;;;;;;14.49;82.93;101426.75;5013915;28;20463;-69
2021/10/26 10:14:31;;;;;;;0.40;0.30;;;;;;;14.43;83.11;101428.75;5013974;28;20523;-69
2021/10/26 10:16:58;;;;;;;0.40;0.30;;;;;;;14.42;82.71;101426.34;5013756;28;20488;-69
2021/10/26 10:19:25;;;;;;;0.40;0.30;;;;;;;14.32;83.11;101424.63;5013846;28;20828;-68
2021/10/26 10:21:51;;;;;;;0.40;0.30;;;;;;;14.28;83.62;101421.72;5013744;28;20450;-69
2021/10/26 10:24:20;;;;;;;0.40;0.20;;;;;;;14.25;83.70;101427.75;5013686;28;20455;-68
2021/10/26 10:26:50;;;;;;;0.40;0.30;;;;;;;14.29;83.05;101428.75;5013216;28;20836;-69
2021/10/26 10:29:19;;;;;;;0.40;0.30;;;;;;;14.25;83.73;101418.78;5013219;28;20453;-69
2021/10/26 10:31:47;;;;;;;0.40;0.30;;;;;;;14.22;83.70;101422.94;5013379;28;20901;-69
2021/10/26 10:34:14;;;;;;;0.40;0.30;;;;;;;14.25;83.19;101429.69;5013655;28;20444;-68
2021/10/26 10:36:41;;;;;;;0.40;0.23;;;;;;;14.23;83.86;101430.00;5013512;28;20496;-70
2021/10/26 10:39:08;;;;;;;0.40;0.30;;;;;;;14.28;83.77;101429.88;5013627;28;20455;-68
2021/10/26 10:41:37;;;;;;;0.40;0.30;;;;;;;14.30;84.01;101430.41;5013165;28;20484;-69
2021/10/26 10:44:08;;;;;;;0.40;0.30;;;;;;;14.36;83.19;101434.63;5013533;28;20475;-68
2021/10/26 10:46:39;;;;;;;0.40;0.30;;;;;;;14.47;82.86;101434.41;5013405;28;20463;-69
2021/10/26 10:49:42;;;;;;;0.40;0.30;;;;;;;14.51;83.03;101438.97;5013469;28;20444;-70
2021/10/26 10:52:12;;;;;;;0.40;0.30;;;;;;;14.57;82.51;101445.94;5010131;28;20478;-69
2021/10/26 10:54:41;;;;;;;0.40;0.20;;;;;;;14.60;82.49;101436.31;5013442;28;20432;-70
2021/10/26 10:57:21;;;;;;;0.40;0.30;;;;;;;14.62;82.43;101443.09;5013398;28;20488;-70
2021/10/26 10:59:49;;;;;;;0.40;0.20;;;;;;;14.62;82.55;101439.56;5013535;28;20432;-68
2021/10/26 11:02:27;;;;;;;0.40;0.30;;;;;;;14.57;82.59;101436.94;5013302;28;20448;-69
2021/10/26 11:04:55;;;;;;;0.40;0.20;;;;;;;14.58;83.29;101444.00;5012762;28;20482;-70
2021/10/26 11:07:54;;;;;;;0.40;0.30;;;;;;;14.58;82.89;101435.81;5013262;28;20877;-70
2021/10/26 11:10:21;;;;;;;0.40;0.30;;;;;;;14.53;82.86;101439.47;5013360;28;20436;-70
2021/10/26 11:12:52;;;;;;;0.40;0.30;;;;;;;14.48;83.61;101430.56;5012965;28;20968;-67
2021/10/26 11:15:25;;;;;;;0.40;0.27;;;;;;;14.48;83.44;101434.13;5013294;28;20439;-69
2021/10/26 11:17:53;;;;;;;0.40;0.20;;;;;;;14.50;83.33;101428.38;5012711;28;20495;-70
2021/10/26 11:20:39;;;;;;;0.40;0.20;;;;;;;14.57;83.73;101429.56;5013187;28;20479;-70
2021/10/26 11:23:08;;;;;;;0.40;0.30;;;;;;;14.74;83.94;101433.53;5013163;28;20444;-70
2021/10/26 11:25:37;;;;;;;0.40;0.30;;;;;;;14.89;83.05;101425.00;5012481;28;20444;-70
2021/10/26 11:28:51;;;;;;;0.40;0.30;;;;;;;15.12;81.71;101429.34;5012785;28;20440;-70
2021/10/26 11:31:24;;;;;;;0.40;0.30;;;;;;;15.31;80.92;101433.78;5013157;28;20448;-70
2021/10/26 11:33:59;;;;;;;0.40;0.30;;;;;;;15.43;79.32;101428.56;5012853;28;20969;-70
2021/10/26 11:36:31;;;;;;;0.60;0.30;;;;;;;15.43;78.95;101431.31;5012662;28;20995;-70
2021/10/26 11:38:59;;;;;;;0.67;0.67;;;;;;;15.33;79.40;101440.56;5013628;28;20468;-70